Simmesport, Louisiana
Current Conditions -  °F | °C
As of 3:35 PM on Saturday 20 Dec 2014 (Local Time) from KHZR Reporting Station
Overcast Overcast  
Wind Chill: 53°   Ceiling: 1600
Heat Index: 53°   Visibility: 10mi
Dew Point: 46°   Wind: 3mph
Humidity: 79%   Direction: 20°NNE
Pressure: 30.13"   Gusts: NA
Location:  30.98°N, 91.8°W
Report Text: KHZR 202135Z AUTO 02003KT 10SM OVC016 12/08 A3013 RMK AO2 T01160080
Loading
Personal Weather Stations






























Interactive Weather Map New forecast layout! Learn more

10-Day Weather Forecast

Advertisements
Track Severe Weather on mobile